createdAt,value
2023-04-01T00:00:10.756Z,9.50
2023-04-01T00:05:36.100Z,9.50
2023-04-01T00:10:39.010Z,9.30
2023-04-01T00:15:44.844Z,9.30
2023-04-01T00:20:49.545Z,9.20
2023-04-01T00:25:52.047Z,9.10
2023-04-01T00:30:54.649Z,9.00
2023-04-01T00:35:57.234Z,8.90
2023-04-01T00:41:00.837Z,8.90
2023-04-01T00:46:03.482Z,9.00
2023-04-01T00:51:09.000Z,9.00
2023-04-01T00:56:27.962Z,8.90
2023-04-01T01:01:32.224Z,8.90
2023-04-01T01:06:53.756Z,9.00
2023-04-01T01:12:19.645Z,9.00
2023-04-01T01:17:32.933Z,8.90
2023-04-01T01:22:53.278Z,8.90
2023-04-01T01:28:19.731Z,8.90
2023-04-01T01:34:03.552Z,8.90
2023-04-01T01:39:09.080Z,9.00
2023-04-01T01:44:14.459Z,9.10
2023-04-01T01:49:19.196Z,9.20
2023-04-01T01:54:22.203Z,9.20
2023-04-01T01:59:27.859Z,9.10
2023-04-01T02:04:30.998Z,9.10
2023-04-01T02:09:35.291Z,9.10
2023-04-01T02:14:48.650Z,9.10
2023-04-01T02:20:08.341Z,9.10
2023-04-01T02:25:18.394Z,9.00
2023-04-01T02:30:22.967Z,9.00
2023-04-01T02:35:26.640Z,9.00
2023-04-01T02:40:29.419Z,8.90
2023-04-01T02:45:32.232Z,8.80
2023-04-01T02:50:35.528Z,8.70
2023-04-01T02:55:38.098Z,8.70
2023-04-01T03:00:40.670Z,8.60
2023-04-01T03:05:43.232Z,8.50
2023-04-01T03:10:46.075Z,8.30
2023-04-01T03:15:48.559Z,8.30
2023-04-01T03:20:51.214Z,8.40
2023-04-01T03:25:53.997Z,8.40
2023-04-01T03:30:57.067Z,8.40
2023-04-01T03:35:59.873Z,8.50
2023-04-01T03:41:02.992Z,8.50
2023-04-01T03:46:06.447Z,8.50
2023-04-01T03:51:09.600Z,8.50
2023-04-01T03:56:12.791Z,8.30
2023-04-01T04:01:21.904Z,8.20
2023-04-01T04:06:27.361Z,8.10
2023-04-01T04:11:31.955Z,8.10
2023-04-01T04:16:37.570Z,8.00
2023-04-01T04:21:42.045Z,7.90
2023-04-01T04:26:44.688Z,7.90
2023-04-01T04:31:47.475Z,8.00
2023-04-01T04:36:50.170Z,8.10
2023-04-01T04:41:53.547Z,8.10
2023-04-01T04:46:58.465Z,8.10
2023-04-01T04:52:01.297Z,8.20
2023-04-01T04:57:05.093Z,8.30
2023-04-01T05:02:12.945Z,8.30
2023-04-01T05:07:16.541Z,8.50
2023-04-01T05:12:19.404Z,8.60
2023-04-01T05:17:41.720Z,8.50
2023-04-01T05:22:45.793Z,8.60
2023-04-01T05:27:49.028Z,8.60
2023-04-01T05:32:51.553Z,8.70
2023-04-01T05:37:54.295Z,8.70
2023-04-01T05:42:57.803Z,8.70
2023-04-01T05:48:01.086Z,8.70
2023-04-01T05:53:07.526Z,8.90
2023-04-01T05:58:10.255Z,9.10
2023-04-01T06:03:15.378Z,9.20
2023-04-01T06:08:20.562Z,9.20
2023-04-01T06:13:46.410Z,9.40
2023-04-01T06:18:51.666Z,9.60
2023-04-01T06:24:21.145Z,10.00
2023-04-01T06:29:38.731Z,10.20
2023-04-01T06:34:59.831Z,10.20
2023-04-01T06:40:08.206Z,10.40
2023-04-01T06:45:21.754Z,10.50
2023-04-01T06:51:37.044Z,10.70
2023-04-01T06:57:06.705Z,11.20
2023-04-01T07:02:15.233Z,11.40
2023-04-01T07:07:18.027Z,11.90
2023-04-01T07:12:32.731Z,11.90
2023-04-01T07:17:59.721Z,11.70
2023-04-01T07:23:05.660Z,11.40
2023-04-01T07:28:31.391Z,11.20
2023-04-01T07:34:01.717Z,11.00
2023-04-01T07:39:38.256Z,10.90
2023-04-01T07:45:19.784Z,10.50
2023-04-01T07:50:29.422Z,10.50
2023-04-01T07:55:56.161Z,10.50
2023-04-01T08:01:11.549Z,10.90
2023-04-01T08:06:21.807Z,11.30
2023-04-01T08:11:43.800Z,11.70
2023-04-01T08:17:37.422Z,11.40
2023-04-01T08:22:44.355Z,11.20
2023-04-01T08:28:00.895Z,11.30
2023-04-01T08:33:27.894Z,11.50
2023-04-01T08:38:53.045Z,12.10
2023-04-01T08:44:23.777Z,12.40
2023-04-01T08:49:44.714Z,12.30
2023-04-01T08:55:32.644Z,12.60
2023-04-01T09:01:21.607Z,12.20
2023-04-01T09:06:47.788Z,12.30
2023-04-01T09:11:56.911Z,12.20
2023-04-01T09:17:14.890Z,12.20
2023-04-01T09:22:24.146Z,11.90
2023-04-01T09:27:57.452Z,11.60
2023-04-01T09:33:24.690Z,11.40
2023-04-01T09:38:48.274Z,13.40
2023-04-01T09:44:24.937Z,11.60
2023-04-01T09:50:08.172Z,12.10
2023-04-01T09:55:19.604Z,12.40
2023-04-01T10:00:25.024Z,13.00
2023-04-01T10:06:13.443Z,13.80
2023-04-01T10:11:48.227Z,14.50
2023-04-01T10:17:15.499Z,14.80
2023-04-01T10:22:55.590Z,14.50
2023-04-01T10:28:27.834Z,14.10
2023-04-01T10:34:01.844Z,13.60
2023-04-01T10:39:23.433Z,12.70
2023-04-01T10:45:10.678Z,11.20
2023-04-01T10:50:20.636Z,10.90
2023-04-01T10:55:45.767Z,11.30
2023-04-01T11:01:14.423Z,11.50
2023-04-01T11:07:18.204Z,12.20
2023-04-01T11:12:45.345Z,12.50
2023-04-01T11:17:53.941Z,12.60
2023-04-01T11:23:11.165Z,12.70
2023-04-01T11:28:40.876Z,13.20
2023-04-01T11:33:48.765Z,13.40
2023-04-01T11:39:21.832Z,12.70
2023-04-01T11:45:21.253Z,12.30
2023-04-01T11:50:36.236Z,11.50
2023-04-01T11:56:17.830Z,10.60
2023-04-01T12:01:57.709Z,10.60
2023-04-01T12:07:34.019Z,11.00
2023-04-01T12:13:01.959Z,11.30
2023-04-01T12:18:43.760Z,11.20
2023-04-01T12:23:58.007Z,11.70
2023-04-01T12:29:12.327Z,12.00
2023-04-01T12:34:49.851Z,12.10
2023-04-01T12:40:51.236Z,11.90
2023-04-01T12:46:06.382Z,12.20
2023-04-01T12:52:03.365Z,11.80
2023-04-01T12:57:17.219Z,11.60
2023-04-01T13:02:56.893Z,11.50
2023-04-01T13:08:18.090Z,11.50
2023-04-01T13:13:39.168Z,10.50
2023-04-01T13:18:53.443Z,10.40
2023-04-01T13:24:14.227Z,10.60
2023-04-01T13:29:31.668Z,10.80
2023-04-01T13:34:47.769Z,10.80
2023-04-01T13:40:18.441Z,10.90
2023-04-01T13:45:47.826Z,10.90
2023-04-01T13:51:02.104Z,10.80
2023-04-01T13:56:33.532Z,10.70
2023-04-01T14:01:59.871Z,10.90
2023-04-01T14:07:37.689Z,11.00
2023-04-01T14:12:55.113Z,10.40
2023-04-01T14:18:19.365Z,10.20
2023-04-01T14:23:38.891Z,10.00
2023-04-01T14:28:50.087Z,10.00
2023-04-01T14:33:52.737Z,10.00
2023-04-01T14:39:19.747Z,9.40
2023-04-01T14:44:45.938Z,9.30
2023-04-01T14:49:53.099Z,9.20
2023-04-01T14:54:57.779Z,9.10
2023-04-01T15:00:19.270Z,9.00
2023-04-01T15:06:11.965Z,8.80
2023-04-01T15:11:27.341Z,8.80
2023-04-01T15:17:02.103Z,8.70
2023-04-01T15:22:13.165Z,8.80
2023-04-01T15:27:31.186Z,8.70
2023-04-01T15:32:58.677Z,8.70
2023-04-01T15:38:12.455Z,8.60
2023-04-01T15:43:39.544Z,8.70
2023-04-01T15:48:48.318Z,8.60
2023-04-01T15:54:23.084Z,8.40
2023-04-01T15:59:50.428Z,8.30
2023-04-01T16:04:57.521Z,8.30
2023-04-01T16:10:03.705Z,8.30
2023-04-01T16:15:06.145Z,8.30
2023-04-01T16:20:27.494Z,8.10
2023-04-01T16:25:42.947Z,8.00
2023-04-01T16:31:07.154Z,8.00
2023-04-01T16:36:12.458Z,8.00
2023-04-01T16:41:34.759Z,8.00
2023-04-01T16:46:45.108Z,7.90
2023-04-01T16:52:01.743Z,7.70
2023-04-01T16:57:10.432Z,7.80
2023-04-01T17:02:19.041Z,7.80
2023-04-01T17:07:43.182Z,7.70
2023-04-01T17:13:08.812Z,7.60
2023-04-01T17:18:24.763Z,7.50
2023-04-01T17:23:39.721Z,7.50
2023-04-01T17:29:07.047Z,7.50
2023-04-01T17:34:44.015Z,7.40
2023-04-01T17:40:21.503Z,7.50
2023-04-01T17:45:43.291Z,7.60
2023-04-01T17:51:21.456Z,7.40
2023-04-01T17:56:36.030Z,7.40
2023-04-01T18:01:55.434Z,7.30
2023-04-01T18:07:16.734Z,7.40
2023-04-01T18:12:28.361Z,7.30
2023-04-01T18:17:46.249Z,7.40
2023-04-01T18:23:04.508Z,7.40
2023-04-01T18:28:18.762Z,7.40
2023-04-01T18:33:25.825Z,7.30
2023-04-01T18:38:43.077Z,7.30
2023-04-01T18:44:04.480Z,7.20
2023-04-01T18:49:23.462Z,7.20
2023-04-01T18:54:33.359Z,7.10
2023-04-01T18:59:41.907Z,7.10
2023-04-01T19:05:06.944Z,6.90
2023-04-01T19:10:38.237Z,6.90
2023-04-01T19:15:45.456Z,6.80
2023-04-01T19:20:58.376Z,6.70
2023-04-01T19:26:05.869Z,6.70
2023-04-01T19:31:42.026Z,6.60
2023-04-01T19:37:10.098Z,6.50
2023-04-01T19:42:24.563Z,6.40
2023-04-01T19:47:55.636Z,6.20
2023-04-01T19:53:02.332Z,6.20
2023-04-01T19:58:20.384Z,6.10
2023-04-01T20:03:23.007Z,6.20
2023-04-01T20:08:49.811Z,6.10
2023-04-01T20:13:54.580Z,5.90
2023-04-01T20:19:00.713Z,5.90
2023-04-01T20:24:15.169Z,6.00
2023-04-01T20:29:37.825Z,5.80
2023-04-01T20:34:55.026Z,5.80
2023-04-01T20:40:15.720Z,5.80
2023-04-01T20:45:30.511Z,5.80
2023-04-01T20:50:42.557Z,5.60
2023-04-01T20:55:48.595Z,5.50
2023-04-01T21:01:03.389Z,5.40
2023-04-01T21:06:37.731Z,5.40
2023-04-01T21:11:53.847Z,5.30
2023-04-01T21:17:33.474Z,5.30
2023-04-01T21:22:44.749Z,5.20
2023-04-01T21:28:15.083Z,5.20
2023-04-01T21:33:33.120Z,5.20
2023-04-01T21:39:11.192Z,5.10
2023-04-01T21:44:39.564Z,5.20
2023-04-01T21:50:05.484Z,5.10
2023-04-01T21:55:21.241Z,5.10
2023-04-01T22:00:51.729Z,5.00
2023-04-01T22:11:09.261Z,4.80
2023-04-01T22:16:35.347Z,4.80
2023-04-01T22:21:45.932Z,4.70
2023-04-01T22:27:04.035Z,4.70
2023-04-01T22:32:09.422Z,4.70
2023-04-01T22:37:14.670Z,4.50
2023-04-01T22:42:33.152Z,4.60
2023-04-01T22:48:06.721Z,4.50
2023-04-01T22:53:18.356Z,4.50
2023-04-01T22:58:38.618Z,4.50
2023-04-01T23:03:44.806Z,4.50
2023-04-01T23:09:09.058Z,4.50
2023-04-01T23:14:27.647Z,4.40
2023-04-01T23:19:49.679Z,4.40
2023-04-01T23:25:16.788Z,4.40
2023-04-01T23:30:41.376Z,4.40
2023-04-01T23:36:07.273Z,4.30
2023-04-01T23:41:23.213Z,4.30
2023-04-01T23:46:31.452Z,4.20
2023-04-01T23:51:47.371Z,4.20
2023-04-01T23:56:53.511Z,4.30
